Terminal Aerodrome Forecast
Issued by NWS Louisville, KY

Home | Current Version | Previous Version | Text Only | Print | Product List | Glossary On
Versions: 1 2 3 4 5 6 7 8 9 10 11 12 13 14 15 16 17 18 19 20 21 22
000
FTUS43 KLMK 141100
TAFLEX
TAF
KLEX 141120Z 1412/1512 20010G16KT 6SM -SHRA OVC060 WS020/20047KT
     FM141500 20017G24KT P6SM VCSH OVC025
     FM141900 23013KT P6SM VCSH OVC025
     FM150200 32013KT P6SM -RA OVC018
     FM150700 33015G22KT P6SM -RASNPL OVC022=

USA.gov is the U.S. government's official web portal to all federal, state and local government web resources and services.